sensor_id;sensor_type;location;lat;lon;timestamp;pressure;altitude;pressure_sealevel;temperature
34807;BMP180;18310;55.586;12.286;2023-02-15T00:00:52;103118.00;;;14.30
34807;BMP180;18310;55.586;12.286;2023-02-15T00:03:56;103110.00;;;14.30
34807;BMP180;18310;55.586;12.286;2023-02-15T00:06:59;103119.00;;;14.30
34807;BMP180;18310;55.586;12.286;2023-02-15T00:10:03;103113.00;;;14.30
34807;BMP180;18310;55.586;12.286;2023-02-15T00:13:06;103112.00;;;14.40
34807;BMP180;18310;55.586;12.286;2023-02-15T00:16:12;103114.00;;;14.40
34807;BMP180;18310;55.586;12.286;2023-02-15T00:19:17;103119.00;;;14.40
34807;BMP180;18310;55.586;12.286;2023-02-15T00:22:21;103105.00;;;14.40
34807;BMP180;18310;55.586;12.286;2023-02-15T00:25:24;103110.00;;;14.40
34807;BMP180;18310;55.586;12.286;2023-02-15T00:28:27;103104.00;;;14.40
34807;BMP180;18310;55.586;12.286;2023-02-15T00:31:33;103108.00;;;14.40
34807;BMP180;18310;55.586;12.286;2023-02-15T00:34:36;103102.00;;;14.30
34807;BMP180;18310;55.586;12.286;2023-02-15T00:37:39;103102.00;;;14.30
34807;BMP180;18310;55.586;12.286;2023-02-15T00:40:42;103102.00;;;14.30
34807;BMP180;18310;55.586;12.286;2023-02-15T00:43:45;103102.00;;;14.30
34807;BMP180;18310;55.586;12.286;2023-02-15T00:46:49;103095.00;;;14.40
34807;BMP180;18310;55.586;12.286;2023-02-15T00:49:52;103093.00;;;14.40
34807;BMP180;18310;55.586;12.286;2023-02-15T00:52:55;103091.00;;;14.30
34807;BMP180;18310;55.586;12.286;2023-02-15T00:55:58;103093.00;;;14.20
34807;BMP180;18310;55.586;12.286;2023-02-15T00:59:02;103095.00;;;14.20
34807;BMP180;18310;55.586;12.286;2023-02-15T01:02:07;103081.00;;;14.20
34807;BMP180;18310;55.586;12.286;2023-02-15T01:05:10;103073.00;;;14.30
34807;BMP180;18310;55.586;12.286;2023-02-15T01:08:13;103078.00;;;14.30
34807;BMP180;18310;55.586;12.286;2023-02-15T01:11:20;103071.00;;;14.30
34807;BMP180;18310;55.586;12.286;2023-02-15T01:14:24;103063.00;;;14.20
34807;BMP180;18310;55.586;12.286;2023-02-15T01:17:28;103059.00;;;14.20
34807;BMP180;18310;55.586;12.286;2023-02-15T01:20:36;103054.00;;;14.30
34807;BMP180;18310;55.586;12.286;2023-02-15T01:23:43;103055.00;;;14.20
34807;BMP180;18310;55.586;12.286;2023-02-15T01:26:46;103054.00;;;14.30
34807;BMP180;18310;55.586;12.286;2023-02-15T01:29:49;103050.00;;;14.20
34807;BMP180;18310;55.586;12.286;2023-02-15T01:32:54;103045.00;;;14.20
34807;BMP180;18310;55.586;12.286;2023-02-15T01:35:58;103044.00;;;14.20
34807;BMP180;18310;55.586;12.286;2023-02-15T01:39:02;103036.00;;;14.20
34807;BMP180;18310;55.586;12.286;2023-02-15T01:42:08;103043.00;;;14.20
34807;BMP180;18310;55.586;12.286;2023-02-15T01:45:22;103035.00;;;14.20
34807;BMP180;18310;55.586;12.286;2023-02-15T01:48:27;103033.00;;;14.20
34807;BMP180;18310;55.586;12.286;2023-02-15T01:51:34;103025.00;;;14.20
34807;BMP180;18310;55.586;12.286;2023-02-15T01:54:39;103016.00;;;14.20
34807;BMP180;18310;55.586;12.286;2023-02-15T01:57:45;103015.00;;;14.20
34807;BMP180;18310;55.586;12.286;2023-02-15T02:00:49;103010.00;;;14.30
34807;BMP180;18310;55.586;12.286;2023-02-15T02:04:02;103025.00;;;14.30
34807;BMP180;18310;55.586;12.286;2023-02-15T02:07:09;103010.00;;;14.30
34807;BMP180;18310;55.586;12.286;2023-02-15T02:10:20;103001.00;;;14.30
34807;BMP180;18310;55.586;12.286;2023-02-15T02:13:24;102994.00;;;14.30
34807;BMP180;18310;55.586;12.286;2023-02-15T02:16:40;102987.00;;;14.40
34807;BMP180;18310;55.586;12.286;2023-02-15T02:20:17;102989.00;;;14.50
34807;BMP180;18310;55.586;12.286;2023-02-15T02:23:51;102981.00;;;14.50
34807;BMP180;18310;55.586;12.286;2023-02-15T02:27:36;102979.00;;;14.50
34807;BMP180;18310;55.586;12.286;2023-02-15T02:31:23;102984.00;;;14.50
34807;BMP180;18310;55.586;12.286;2023-02-15T02:34:43;102966.00;;;14.50
34807;BMP180;18310;55.586;12.286;2023-02-15T02:37:57;102968.00;;;14.50
34807;BMP180;18310;55.586;12.286;2023-02-15T02:41:14;102965.00;;;14.40
34807;BMP180;18310;55.586;12.286;2023-02-15T02:44:24;102957.00;;;14.40
34807;BMP180;18310;55.586;12.286;2023-02-15T02:47:32;102951.00;;;14.40
34807;BMP180;18310;55.586;12.286;2023-02-15T02:50:40;102949.00;;;14.50
34807;BMP180;18310;55.586;12.286;2023-02-15T02:53:43;102942.00;;;14.50
34807;BMP180;18310;55.586;12.286;2023-02-15T02:56:48;102944.00;;;14.40
34807;BMP180;18310;55.586;12.286;2023-02-15T02:59:54;102933.00;;;14.40
34807;BMP180;18310;55.586;12.286;2023-02-15T03:03:04;102934.00;;;14.50
34807;BMP180;18310;55.586;12.286;2023-02-15T03:06:17;102928.00;;;14.50
34807;BMP180;18310;55.586;12.286;2023-02-15T03:09:25;102913.00;;;14.50
34807;BMP180;18310;55.586;12.286;2023-02-15T03:12:39;102919.00;;;14.50
34807;BMP180;18310;55.586;12.286;2023-02-15T03:15:45;102911.00;;;14.50
34807;BMP180;18310;55.586;12.286;2023-02-15T03:19:11;102908.00;;;14.50
34807;BMP180;18310;55.586;12.286;2023-02-15T03:22:21;102905.00;;;14.50
34807;BMP180;18310;55.586;12.286;2023-02-15T03:25:32;102891.00;;;14.50
34807;BMP180;18310;55.586;12.286;2023-02-15T03:28:42;102886.00;;;14.50
34807;BMP180;18310;55.586;12.286;2023-02-15T03:31:54;102896.00;;;14.40
34807;BMP180;18310;55.586;12.286;2023-02-15T03:34:59;102881.00;;;14.40
34807;BMP180;18310;55.586;12.286;2023-02-15T03:38:07;102877.00;;;14.40
34807;BMP180;18310;55.586;12.286;2023-02-15T03:41:14;102880.00;;;14.40
34807;BMP180;18310;55.586;12.286;2023-02-15T03:44:27;102875.00;;;14.40
34807;BMP180;18310;55.586;12.286;2023-02-15T03:47:36;102873.00;;;14.30
34807;BMP180;18310;55.586;12.286;2023-02-15T03:50:40;102879.00;;;14.30
34807;BMP180;18310;55.586;12.286;2023-02-15T03:54:23;102872.00;;;14.30
34807;BMP180;18310;55.586;12.286;2023-02-15T03:57:46;102868.00;;;14.30
34807;BMP180;18310;55.586;12.286;2023-02-15T04:01:16;102872.00;;;14.30
34807;BMP180;18310;55.586;12.286;2023-02-15T04:04:44;102869.00;;;14.30
34807;BMP180;18310;55.586;12.286;2023-02-15T04:07:47;102863.00;;;14.30
34807;BMP180;18310;55.586;12.286;2023-02-15T04:10:52;102860.00;;;14.30
34807;BMP180;18310;55.586;12.286;2023-02-15T04:13:54;102858.00;;;14.30
34807;BMP180;18310;55.586;12.286;2023-02-15T04:16:59;102863.00;;;14.30
34807;BMP180;18310;55.586;12.286;2023-02-15T04:20:01;102858.00;;;14.30
34807;BMP180;18310;55.586;12.286;2023-02-15T04:23:22;102857.00;;;14.30
34807;BMP180;18310;55.586;12.286;2023-02-15T04:26:46;102854.00;;;14.30
34807;BMP180;18310;55.586;12.286;2023-02-15T04:29:50;102853.00;;;14.30
34807;BMP180;18310;55.586;12.286;2023-02-15T04:32:54;102841.00;;;14.30
34807;BMP180;18310;55.586;12.286;2023-02-15T04:35:58;102842.00;;;14.30
34807;BMP180;18310;55.586;12.286;2023-02-15T04:39:02;102844.00;;;14.40
34807;BMP180;18310;55.586;12.286;2023-02-15T04:42:06;102835.00;;;14.40
34807;BMP180;18310;55.586;12.286;2023-02-15T04:45:11;102837.00;;;14.40
34807;BMP180;18310;55.586;12.286;2023-02-15T04:48:15;102834.00;;;14.40
34807;BMP180;18310;55.586;12.286;2023-02-15T04:51:19;102822.00;;;14.40
34807;BMP180;18310;55.586;12.286;2023-02-15T04:54:22;102823.00;;;14.40
34807;BMP180;18310;55.586;12.286;2023-02-15T04:57:26;102818.00;;;14.40
34807;BMP180;18310;55.586;12.286;2023-02-15T05:00:29;102828.00;;;14.30
34807;BMP180;18310;55.586;12.286;2023-02-15T05:03:32;102814.00;;;14.30
34807;BMP180;18310;55.586;12.286;2023-02-15T05:06:36;102818.00;;;14.30
34807;BMP180;18310;55.586;12.286;2023-02-15T05:09:39;102810.00;;;14.20
34807;BMP180;18310;55.586;12.286;2023-02-15T05:12:43;102813.00;;;14.30
34807;BMP180;18310;55.586;12.286;2023-02-15T05:15:48;102812.00;;;14.30
34807;BMP180;18310;55.586;12.286;2023-02-15T05:18:51;102815.00;;;14.30
34807;BMP180;18310;55.586;12.286;2023-02-15T05:21:54;102814.00;;;14.30
34807;BMP180;18310;55.586;12.286;2023-02-15T05:24:57;102821.00;;;14.30
34807;BMP180;18310;55.586;12.286;2023-02-15T05:28:20;102817.00;;;14.30
34807;BMP180;18310;55.586;12.286;2023-02-15T05:31:23;102817.00;;;14.30
34807;BMP180;18310;55.586;12.286;2023-02-15T05:34:26;102809.00;;;14.30
34807;BMP180;18310;55.586;12.286;2023-02-15T05:37:29;102811.00;;;14.30
34807;BMP180;18310;55.586;12.286;2023-02-15T05:40:33;102809.00;;;14.30
34807;BMP180;18310;55.586;12.286;2023-02-15T05:43:39;102804.00;;;14.40
34807;BMP180;18310;55.586;12.286;2023-02-15T05:46:42;102800.00;;;14.40
34807;BMP180;18310;55.586;12.286;2023-02-15T05:49:45;102800.00;;;14.40
34807;BMP180;18310;55.586;12.286;2023-02-15T05:52:48;102799.00;;;14.40
34807;BMP180;18310;55.586;12.286;2023-02-15T05:55:53;102789.00;;;14.40
34807;BMP180;18310;55.586;12.286;2023-02-15T05:59:02;102792.00;;;14.40
34807;BMP180;18310;55.586;12.286;2023-02-15T06:02:05;102794.00;;;14.30
34807;BMP180;18310;55.586;12.286;2023-02-15T06:05:09;102792.00;;;14.30
34807;BMP180;18310;55.586;12.286;2023-02-15T06:08:12;102789.00;;;14.30
34807;BMP180;18310;55.586;12.286;2023-02-15T06:11:15;102788.00;;;14.30
34807;BMP180;18310;55.586;12.286;2023-02-15T06:14:20;102792.00;;;14.30
34807;BMP180;18310;55.586;12.286;2023-02-15T06:17:23;102791.00;;;14.30
34807;BMP180;18310;55.586;12.286;2023-02-15T06:20:26;102790.00;;;14.30
34807;BMP180;18310;55.586;12.286;2023-02-15T06:23:29;102792.00;;;14.30
34807;BMP180;18310;55.586;12.286;2023-02-15T06:26:32;102789.00;;;14.30
34807;BMP180;18310;55.586;12.286;2023-02-15T06:29:37;102787.00;;;14.20
34807;BMP180;18310;55.586;12.286;2023-02-15T06:32:40;102781.00;;;14.20
34807;BMP180;18310;55.586;12.286;2023-02-15T06:35:44;102785.00;;;14.20
34807;BMP180;18310;55.586;12.286;2023-02-15T06:38:47;102794.00;;;14.20
34807;BMP180;18310;55.586;12.286;2023-02-15T06:41:50;102777.00;;;14.20
34807;BMP180;18310;55.586;12.286;2023-02-15T06:44:55;102787.00;;;14.20
34807;BMP180;18310;55.586;12.286;2023-02-15T06:47:58;102783.00;;;14.20
34807;BMP180;18310;55.586;12.286;2023-02-15T06:51:01;102783.00;;;14.20
34807;BMP180;18310;55.586;12.286;2023-02-15T06:54:05;102780.00;;;14.20
34807;BMP180;18310;55.586;12.286;2023-02-15T06:57:08;102774.00;;;14.20
34807;BMP180;18310;55.586;12.286;2023-02-15T07:00:14;102780.00;;;14.30
34807;BMP180;18310;55.586;12.286;2023-02-15T07:03:19;102778.00;;;14.30
34807;BMP180;18310;55.586;12.286;2023-02-15T07:06:22;102776.00;;;14.30
34807;BMP180;18310;55.586;12.286;2023-02-15T07:09:25;102769.00;;;14.30
34807;BMP180;18310;55.586;12.286;2023-02-15T07:12:28;102770.00;;;14.30
34807;BMP180;18310;55.586;12.286;2023-02-15T07:15:49;102765.00;;;14.30
34807;BMP180;18310;55.586;12.286;2023-02-15T07:18:52;102760.00;;;14.30
34807;BMP180;18310;55.586;12.286;2023-02-15T07:21:55;102763.00;;;14.30
34807;BMP180;18310;55.586;12.286;2023-02-15T07:24:58;102755.00;;;14.30
34807;BMP180;18310;55.586;12.286;2023-02-15T07:28:03;102751.00;;;14.30
34807;BMP180;18310;55.586;12.286;2023-02-15T07:31:08;102757.00;;;14.40
34807;BMP180;18310;55.586;12.286;2023-02-15T07:34:11;102761.00;;;14.40
34807;BMP180;18310;55.586;12.286;2023-02-15T07:37:15;102749.00;;;14.40
34807;BMP180;18310;55.586;12.286;2023-02-15T07:40:18;102737.00;;;14.40
34807;BMP180;18310;55.586;12.286;2023-02-15T07:43:21;102741.00;;;14.40
34807;BMP180;18310;55.586;12.286;2023-02-15T07:46:25;102740.00;;;14.40
34807;BMP180;18310;55.586;12.286;2023-02-15T07:49:28;102736.00;;;14.40
34807;BMP180;18310;55.586;12.286;2023-02-15T07:52:31;102738.00;;;14.40
34807;BMP180;18310;55.586;12.286;2023-02-15T07:55:35;102740.00;;;14.40
34807;BMP180;18310;55.586;12.286;2023-02-15T07:58:38;102732.00;;;14.40
34807;BMP180;18310;55.586;12.286;2023-02-15T08:01:55;102731.00;;;14.40
34807;BMP180;18310;55.586;12.286;2023-02-15T08:04:59;102740.00;;;14.40
34807;BMP180;18310;55.586;12.286;2023-02-15T08:08:03;102733.00;;;14.40
34807;BMP180;18310;55.586;12.286;2023-02-15T08:11:18;102740.00;;;14.40
34807;BMP180;18310;55.586;12.286;2023-02-15T08:14:27;102738.00;;;14.30
34807;BMP180;18310;55.586;12.286;2023-02-15T08:17:36;102731.00;;;14.10
34807;BMP180;18310;55.586;12.286;2023-02-15T08:20:39;102726.00;;;13.80
34807;BMP180;18310;55.586;12.286;2023-02-15T08:23:42;102715.00;;;14.10
34807;BMP180;18310;55.586;12.286;2023-02-15T08:26:46;102725.00;;;14.20
34807;BMP180;18310;55.586;12.286;2023-02-15T08:29:50;102720.00;;;14.20
34807;BMP180;18310;55.586;12.286;2023-02-15T08:32:54;102716.00;;;14.00
34807;BMP180;18310;55.586;12.286;2023-02-15T08:36:03;102723.00;;;13.60
34807;BMP180;18310;55.586;12.286;2023-02-15T08:39:08;102703.00;;;13.50
34807;BMP180;18310;55.586;12.286;2023-02-15T08:42:12;102694.00;;;13.50
34807;BMP180;18310;55.586;12.286;2023-02-15T08:45:16;102697.00;;;13.50
34807;BMP180;18310;55.586;12.286;2023-02-15T08:48:20;102697.00;;;13.90
34807;BMP180;18310;55.586;12.286;2023-02-15T08:51:25;102691.00;;;14.00
34807;BMP180;18310;55.586;12.286;2023-02-15T08:54:29;102696.00;;;14.20
34807;BMP180;18310;55.586;12.286;2023-02-15T08:57:32;102690.00;;;14.20
34807;BMP180;18310;55.586;12.286;2023-02-15T09:00:35;102687.00;;;14.30
34807;BMP180;18310;55.586;12.286;2023-02-15T09:03:39;102685.00;;;14.40
34807;BMP180;18310;55.586;12.286;2023-02-15T09:06:46;102685.00;;;14.40
34807;BMP180;18310;55.586;12.286;2023-02-15T09:09:50;102688.00;;;14.50
34807;BMP180;18310;55.586;12.286;2023-02-15T09:12:53;102682.00;;;14.50
34807;BMP180;18310;55.586;12.286;2023-02-15T09:16:00;102676.00;;;14.50
34807;BMP180;18310;55.586;12.286;2023-02-15T09:19:05;102670.00;;;14.50
34807;BMP180;18310;55.586;12.286;2023-02-15T09:22:08;102672.00;;;14.50
34807;BMP180;18310;55.586;12.286;2023-02-15T09:25:11;102671.00;;;14.50
34807;BMP180;18310;55.586;12.286;2023-02-15T09:28:15;102665.00;;;14.50
34807;BMP180;18310;55.586;12.286;2023-02-15T09:31:20;102661.00;;;14.50
34807;BMP180;18310;55.586;12.286;2023-02-15T09:34:27;102653.00;;;14.50
34807;BMP180;18310;55.586;12.286;2023-02-15T09:37:31;102659.00;;;14.50
34807;BMP180;18310;55.586;12.286;2023-02-15T09:40:49;102667.00;;;14.50
34807;BMP180;18310;55.586;12.286;2023-02-15T09:44:06;102670.00;;;14.50
34807;BMP180;18310;55.586;12.286;2023-02-15T09:48:03;102672.00;;;14.60
34807;BMP180;18310;55.586;12.286;2023-02-15T09:51:47;102669.00;;;14.60
34807;BMP180;18310;55.586;12.286;2023-02-15T09:55:09;102673.00;;;14.60
34807;BMP180;18310;55.586;12.286;2023-02-15T09:58:27;102669.00;;;14.60
34807;BMP180;18310;55.586;12.286;2023-02-15T10:01:38;102650.00;;;14.60
34807;BMP180;18310;55.586;12.286;2023-02-15T10:05:00;102650.00;;;14.60
34807;BMP180;18310;55.586;12.286;2023-02-15T10:08:31;102647.00;;;14.60
34807;BMP180;18310;55.586;12.286;2023-02-15T10:12:11;102639.00;;;14.70
34807;BMP180;18310;55.586;12.286;2023-02-15T10:15:36;102641.00;;;14.80
34807;BMP180;18310;55.586;12.286;2023-02-15T10:18:54;102628.00;;;14.80
34807;BMP180;18310;55.586;12.286;2023-02-15T10:22:13;102634.00;;;14.80
34807;BMP180;18310;55.586;12.286;2023-02-15T10:25:34;102632.00;;;14.80
34807;BMP180;18310;55.586;12.286;2023-02-15T10:28:46;102624.00;;;14.80
34807;BMP180;18310;55.586;12.286;2023-02-15T10:32:01;102630.00;;;14.80
34807;BMP180;18310;55.586;12.286;2023-02-15T10:35:17;102633.00;;;14.90
34807;BMP180;18310;55.586;12.286;2023-02-15T10:38:33;102626.00;;;14.90
34807;BMP180;18310;55.586;12.286;2023-02-15T10:41:49;102629.00;;;14.90
34807;BMP180;18310;55.586;12.286;2023-02-15T10:45:13;102617.00;;;14.90
34807;BMP180;18310;55.586;12.286;2023-02-15T10:48:56;102609.00;;;15.00
34807;BMP180;18310;55.586;12.286;2023-02-15T10:52:18;102609.00;;;14.90
34807;BMP180;18310;55.586;12.286;2023-02-15T10:55:42;102600.00;;;15.00
34807;BMP180;18310;55.586;12.286;2023-02-15T10:59:08;102608.00;;;15.00
34807;BMP180;18310;55.586;12.286;2023-02-15T11:02:25;102617.00;;;14.90
34807;BMP180;18310;55.586;12.286;2023-02-15T11:05:42;102616.00;;;14.90
34807;BMP180;18310;55.586;12.286;2023-02-15T11:08:51;102604.00;;;14.90
34807;BMP180;18310;55.586;12.286;2023-02-15T11:11:57;102606.00;;;14.90
34807;BMP180;18310;55.586;12.286;2023-02-15T11:15:16;102596.00;;;14.90
34807;BMP180;18310;55.586;12.286;2023-02-15T11:18:28;102590.00;;;14.90
34807;BMP180;18310;55.586;12.286;2023-02-15T11:21:40;102599.00;;;14.90
34807;BMP180;18310;55.586;12.286;2023-02-15T11:24:46;102592.00;;;14.90
34807;BMP180;18310;55.586;12.286;2023-02-15T11:27:51;102589.00;;;15.00
34807;BMP180;18310;55.586;12.286;2023-02-15T11:31:02;102589.00;;;15.00
34807;BMP180;18310;55.586;12.286;2023-02-15T11:34:18;102567.00;;;15.00
34807;BMP180;18310;55.586;12.286;2023-02-15T11:37:33;102563.00;;;15.00
34807;BMP180;18310;55.586;12.286;2023-02-15T11:40:45;102553.00;;;15.00
34807;BMP180;18310;55.586;12.286;2023-02-15T11:43:56;102547.00;;;15.00
34807;BMP180;18310;55.586;12.286;2023-02-15T11:47:02;102543.00;;;14.90
34807;BMP180;18310;55.586;12.286;2023-02-15T11:50:11;102556.00;;;15.00
34807;BMP180;18310;55.586;12.286;2023-02-15T11:53:18;102552.00;;;15.00
34807;BMP180;18310;55.586;12.286;2023-02-15T11:56:24;102545.00;;;15.00
34807;BMP180;18310;55.586;12.286;2023-02-15T11:59:33;102550.00;;;14.90
34807;BMP180;18310;55.586;12.286;2023-02-15T12:02:46;102556.00;;;14.90
34807;BMP180;18310;55.586;12.286;2023-02-15T12:05:58;102545.00;;;14.90
34807;BMP180;18310;55.586;12.286;2023-02-15T12:09:14;102553.00;;;14.90
34807;BMP180;18310;55.586;12.286;2023-02-15T12:12:26;102555.00;;;14.80
34807;BMP180;18310;55.586;12.286;2023-02-15T12:15:31;102543.00;;;14.80
34807;BMP180;18310;55.586;12.286;2023-02-15T12:18:41;102536.00;;;14.80
34807;BMP180;18310;55.586;12.286;2023-02-15T12:21:51;102527.00;;;14.70
34807;BMP180;18310;55.586;12.286;2023-02-15T12:24:58;102525.00;;;14.80
34807;BMP180;18310;55.586;12.286;2023-02-15T12:28:05;102517.00;;;14.70
34807;BMP180;18310;55.586;12.286;2023-02-15T12:31:23;102514.00;;;14.70
34807;BMP180;18310;55.586;12.286;2023-02-15T12:34:32;102514.00;;;14.60
34807;BMP180;18310;55.586;12.286;2023-02-15T12:37:54;102503.00;;;14.60
34807;BMP180;18310;55.586;12.286;2023-02-15T12:41:00;102501.00;;;14.50
34807;BMP180;18310;55.586;12.286;2023-02-15T12:44:16;102497.00;;;14.50
34807;BMP180;18310;55.586;12.286;2023-02-15T12:47:20;102491.00;;;14.50
34807;BMP180;18310;55.586;12.286;2023-02-15T12:50:31;102489.00;;;14.50
34807;BMP180;18310;55.586;12.286;2023-02-15T12:53:36;102486.00;;;14.40
34807;BMP180;18310;55.586;12.286;2023-02-15T12:56:40;102489.00;;;14.50
34807;BMP180;18310;55.586;12.286;2023-02-15T12:59:49;102488.00;;;14.50
34807;BMP180;18310;55.586;12.286;2023-02-15T13:02:55;102478.00;;;14.40
34807;BMP180;18310;55.586;12.286;2023-02-15T13:06:02;102458.00;;;14.40
34807;BMP180;18310;55.586;12.286;2023-02-15T13:09:15;102462.00;;;14.30
34807;BMP180;18310;55.586;12.286;2023-02-15T13:12:22;102460.00;;;14.30
34807;BMP180;18310;55.586;12.286;2023-02-15T13:15:35;102453.00;;;14.30
34807;BMP180;18310;55.586;12.286;2023-02-15T13:18:42;102454.00;;;14.30
34807;BMP180;18310;55.586;12.286;2023-02-15T13:21:50;102458.00;;;14.30
34807;BMP180;18310;55.586;12.286;2023-02-15T13:24:58;102447.00;;;14.30
34807;BMP180;18310;55.586;12.286;2023-02-15T13:28:03;102453.00;;;14.30
34807;BMP180;18310;55.586;12.286;2023-02-15T13:31:14;102444.00;;;14.30
34807;BMP180;18310;55.586;12.286;2023-02-15T13:34:24;102446.00;;;14.20
34807;BMP180;18310;55.586;12.286;2023-02-15T13:37:54;102438.00;;;14.20
34807;BMP180;18310;55.586;12.286;2023-02-15T13:41:08;102431.00;;;14.20
34807;BMP180;18310;55.586;12.286;2023-02-15T13:44:27;102436.00;;;14.20
34807;BMP180;18310;55.586;12.286;2023-02-15T13:47:45;102427.00;;;14.20
34807;BMP180;18310;55.586;12.286;2023-02-15T13:51:09;102418.00;;;14.20
34807;BMP180;18310;55.586;12.286;2023-02-15T13:54:48;102413.00;;;14.20
34807;BMP180;18310;55.586;12.286;2023-02-15T13:58:20;102423.00;;;14.20
34807;BMP180;18310;55.586;12.286;2023-02-15T14:01:39;102429.00;;;14.20
34807;BMP180;18310;55.586;12.286;2023-02-15T14:05:05;102419.00;;;14.30
34807;BMP180;18310;55.586;12.286;2023-02-15T14:08:27;102407.00;;;14.20
34807;BMP180;18310;55.586;12.286;2023-02-15T14:11:47;102412.00;;;14.20
34807;BMP180;18310;55.586;12.286;2023-02-15T14:15:09;102403.00;;;14.20
34807;BMP180;18310;55.586;12.286;2023-02-15T14:18:26;102410.00;;;14.20
34807;BMP180;18310;55.586;12.286;2023-02-15T14:21:37;102398.00;;;14.20
34807;BMP180;18310;55.586;12.286;2023-02-15T14:24:46;102395.00;;;14.20
34807;BMP180;18310;55.586;12.286;2023-02-15T14:28:07;102394.00;;;14.20
34807;BMP180;18310;55.586;12.286;2023-02-15T14:31:13;102384.00;;;14.20
34807;BMP180;18310;55.586;12.286;2023-02-15T14:34:22;102382.00;;;14.20
34807;BMP180;18310;55.586;12.286;2023-02-15T14:37:39;102391.00;;;14.20
34807;BMP180;18310;55.586;12.286;2023-02-15T14:40:53;102387.00;;;14.20
34807;BMP180;18310;55.586;12.286;2023-02-15T14:44:17;102389.00;;;14.20
34807;BMP180;18310;55.586;12.286;2023-02-15T14:47:29;102387.00;;;14.20
34807;BMP180;18310;55.586;12.286;2023-02-15T14:50:46;102387.00;;;14.20
34807;BMP180;18310;55.586;12.286;2023-02-15T14:53:49;102394.00;;;14.20
34807;BMP180;18310;55.586;12.286;2023-02-15T14:57:40;102373.00;;;14.20
34807;BMP180;18310;55.586;12.286;2023-02-15T15:01:05;102387.00;;;14.10
34807;BMP180;18310;55.586;12.286;2023-02-15T15:04:13;102384.00;;;14.10
34807;BMP180;18310;55.586;12.286;2023-02-15T15:07:27;102372.00;;;14.10
34807;BMP180;18310;55.586;12.286;2023-02-15T15:10:40;102384.00;;;14.10
34807;BMP180;18310;55.586;12.286;2023-02-15T15:13:55;102389.00;;;14.10
34807;BMP180;18310;55.586;12.286;2023-02-15T15:17:02;102384.00;;;14.10
34807;BMP180;18310;55.586;12.286;2023-02-15T15:20:13;102388.00;;;14.10
34807;BMP180;18310;55.586;12.286;2023-02-15T15:23:45;102373.00;;;14.20
34807;BMP180;18310;55.586;12.286;2023-02-15T15:26:48;102382.00;;;14.20
34807;BMP180;18310;55.586;12.286;2023-02-15T15:29:52;102378.00;;;14.30
34807;BMP180;18310;55.586;12.286;2023-02-15T15:33:04;102373.00;;;14.30
34807;BMP180;18310;55.586;12.286;2023-02-15T15:40:38;102365.00;;;14.30
34807;BMP180;18310;55.586;12.286;2023-02-15T15:44:40;102366.00;;;14.30
34807;BMP180;18310;55.586;12.286;2023-02-15T15:48:06;102369.00;;;14.30
34807;BMP180;18310;55.586;12.286;2023-02-15T15:51:20;102370.00;;;14.30
34807;BMP180;18310;55.586;12.286;2023-02-15T15:54:26;102365.00;;;14.30
34807;BMP180;18310;55.586;12.286;2023-02-15T15:57:33;102359.00;;;14.30
34807;BMP180;18310;55.586;12.286;2023-02-15T16:00:41;102363.00;;;14.40
34807;BMP180;18310;55.586;12.286;2023-02-15T16:03:53;102361.00;;;14.40
34807;BMP180;18310;55.586;12.286;2023-02-15T16:07:25;102353.00;;;14.40
34807;BMP180;18310;55.586;12.286;2023-02-15T16:10:30;102358.00;;;14.40
34807;BMP180;18310;55.586;12.286;2023-02-15T16:13:35;102358.00;;;14.40
34807;BMP180;18310;55.586;12.286;2023-02-15T16:16:39;102348.00;;;14.40
34807;BMP180;18310;55.586;12.286;2023-02-15T16:19:44;102334.00;;;14.50
34807;BMP180;18310;55.586;12.286;2023-02-15T16:22:55;102338.00;;;14.50
34807;BMP180;18310;55.586;12.286;2023-02-15T16:26:15;102340.00;;;14.50
34807;BMP180;18310;55.586;12.286;2023-02-15T16:29:29;102347.00;;;14.50
34807;BMP180;18310;55.586;12.286;2023-02-15T16:32:32;102335.00;;;14.50
34807;BMP180;18310;55.586;12.286;2023-02-15T16:35:52;102355.00;;;14.60
34807;BMP180;18310;55.586;12.286;2023-02-15T16:39:18;102342.00;;;14.60
34807;BMP180;18310;55.586;12.286;2023-02-15T16:42:22;102348.00;;;14.60
34807;BMP180;18310;55.586;12.286;2023-02-15T16:45:27;102330.00;;;14.60
34807;BMP180;18310;55.586;12.286;2023-02-15T16:48:34;102334.00;;;14.60
34807;BMP180;18310;55.586;12.286;2023-02-15T16:51:44;102328.00;;;14.60
34807;BMP180;18310;55.586;12.286;2023-02-15T16:54:55;102332.00;;;14.70
34807;BMP180;18310;55.586;12.286;2023-02-15T16:58:02;102323.00;;;14.70
34807;BMP180;18310;55.586;12.286;2023-02-15T17:01:10;102319.00;;;14.70
34807;BMP180;18310;55.586;12.286;2023-02-15T17:04:28;102303.00;;;14.70
34807;BMP180;18310;55.586;12.286;2023-02-15T17:07:39;102298.00;;;14.70
34807;BMP180;18310;55.586;12.286;2023-02-15T17:11:01;102288.00;;;14.70
34807;BMP180;18310;55.586;12.286;2023-02-15T17:14:26;102273.00;;;14.70
34807;BMP180;18310;55.586;12.286;2023-02-15T17:17:31;102289.00;;;14.60
34807;BMP180;18310;55.586;12.286;2023-02-15T17:20:42;102287.00;;;14.60
34807;BMP180;18310;55.586;12.286;2023-02-15T17:24:00;102285.00;;;14.60
34807;BMP180;18310;55.586;12.286;2023-02-15T17:27:14;102290.00;;;14.60
34807;BMP180;18310;55.586;12.286;2023-02-15T17:30:31;102289.00;;;14.60
34807;BMP180;18310;55.586;12.286;2023-02-15T17:33:46;102292.00;;;14.60
34807;BMP180;18310;55.586;12.286;2023-02-15T17:36:57;102292.00;;;14.60
34807;BMP180;18310;55.586;12.286;2023-02-15T17:40:18;102278.00;;;14.60
34807;BMP180;18310;55.586;12.286;2023-02-15T17:43:21;102268.00;;;14.60
34807;BMP180;18310;55.586;12.286;2023-02-15T17:46:27;102265.00;;;14.50
34807;BMP180;18310;55.586;12.286;2023-02-15T17:49:33;102274.00;;;14.50